Time;durP1;ratioP1;P1;durP2;ratioP2;P2;SDS_P1;SDS_P2;PMS_P1;PMS_P2;Temp;Humidity;BMP_temperature;BMP_pressure;BME280_temperature;BME280_humidity;BME280_pressure;Samples;Min_cycle;Max_cycle;Signal;HPM_P1;HPM_P2
2021/04/23 00:01:23;;;;;;;5.90;1.10;;;17.90;92.00;;;;;;5054672;28;20076;-67
2021/04/23 00:06:58;;;;;;;7.18;1.30;;;17.80;91.20;;;;;;5022888;28;20172;-67
2021/04/23 00:09:31;;;;;;;8.30;1.80;;;18.20;91.00;;;;;;5024326;28;20050;-67
2021/04/23 00:12:17;;;;;;;6.32;1.05;;;18.60;90.80;;;;;;5026899;28;20049;-67
2021/04/23 00:18:07;;;;;;;6.28;1.30;;;18.60;90.40;;;;;;5031881;28;20099;-66
2021/04/23 00:20:35;;;;;;;6.38;1.42;;;18.60;90.70;;;;;;5027831;28;20450;-67
2021/04/23 00:23:06;;;;;;;5.32;0.98;;;18.90;91.10;;;;;;5018005;28;20056;-67
2021/04/23 00:25:34;;;;;;;7.43;2.00;;;19.00;89.70;;;;;;5018657;28;20092;-68
2021/04/23 00:28:05;;;;;;;23.92;3.58;;;18.50;89.30;;;;;;5017375;28;20042;-67
2021/04/23 00:30:36;;;;;;;5.78;1.02;;;18.40;90.30;;;;;;5030384;28;20025;-67
2021/04/23 00:41:02;;;;;;;4.05;0.98;;;18.80;88.50;;;;;;5154377;22;20054;-89
2021/04/23 00:46:30;;;;;;;10.05;2.22;;;18.70;89.20;;;;;;4061289;23;20055;-69
2021/04/23 00:48:59;;;;;;;6.97;2.00;;;18.70;87.70;;;;;;4930452;29;20050;-67
2021/04/23 00:51:33;;;;;;;8.30;2.63;;;18.50;87.30;;;;;;4958199;29;20043;-69
2021/04/23 00:54:03;;;;;;;7.63;2.58;;;18.80;88.90;;;;;;4946248;28;20373;-68
2021/04/23 00:56:34;;;;;;;8.75;3.00;;;18.80;88.50;;;;;;4954971;28;20503;-68
2021/04/23 00:59:03;;;;;;;10.73;3.35;;;19.20;88.40;;;;;;4945710;29;20027;-68
2021/04/23 01:01:43;;;;;;;6.13;3.03;;;19.20;87.70;;;;;;4936099;29;20043;-68
2021/04/23 01:04:13;;;;;;;5.78;3.00;;;19.30;87.00;;;;;;4933089;29;20040;-68
2021/04/23 01:06:41;;;;;;;9.68;2.55;;;19.30;87.80;;;;;;4930061;29;20031;-69
2021/04/23 01:09:15;;;;;;;9.60;3.08;;;19.60;86.20;;;;;;4928356;29;20036;-69
2021/04/23 01:11:44;;;;;;;9.18;2.30;;;19.20;86.40;;;;;;4930785;29;20050;-67
2021/04/23 01:14:12;;;;;;;4.55;1.88;;;19.10;86.90;;;;;;4932130;29;20039;-68
2021/04/23 01:16:40;;;;;;;5.82;2.35;;;19.30;87.40;;;;;;4918257;29;20070;-68
2021/04/23 01:19:20;;;;;;;6.65;1.70;;;19.50;86.40;;;;;;4939556;29;20035;-68
2021/04/23 01:21:48;;;;;;;3.25;1.00;;;19.50;86.00;;;;;;4931065;29;20036;-69
2021/04/23 01:24:18;;;;;;;4.50;0.93;;;19.40;85.00;;;;;;4937821;29;20032;-67
2021/04/23 01:26:49;;;;;;;2.60;1.20;;;19.20;85.90;;;;;;4924051;29;20048;-66
2021/04/23 01:29:18;;;;;;;5.25;1.55;;;19.50;85.40;;;;;;4927895;29;20091;-67
2021/04/23 01:31:49;;;;;;;7.53;1.60;;;19.90;87.90;;;;;;4925208;29;20044;-66
2021/04/23 01:34:27;;;;;;;4.05;0.82;;;20.00;84.60;;;;;;4920361;29;20036;-66
2021/04/23 01:36:55;;;;;;;9.15;1.63;;;19.80;85.50;;;;;;4923955;29;20040;-67
2021/04/23 01:39:25;;;;;;;5.07;0.98;;;19.70;83.60;;;;;;4907883;29;20067;-68
2021/04/23 01:41:54;;;;;;;6.75;1.50;;;19.90;86.40;;;;;;4915007;29;20039;-67
2021/04/23 01:44:22;;;;;;;4.68;1.17;;;20.20;84.80;;;;;;4919954;29;20048;-67
2021/04/23 01:46:50;;;;;;;2.65;0.57;;;20.30;85.90;;;;;;4924258;29;20063;-66
2021/04/23 01:49:20;;;;;;;3.05;0.88;;;19.90;84.10;;;;;;4927001;29;20035;-68
2021/04/23 01:51:52;;;;;;;2.40;0.70;;;20.10;83.50;;;;;;4919785;29;20028;-68
2021/04/23 01:56:47;;;;;;;4.05;0.50;;;20.30;83.30;;;;;;5456009;23;20086;-78
2021/04/23 02:01:43;;;;;;;3.55;0.80;;;20.20;82.40;;;;;;4902163;29;20056;-67
2021/04/23 02:04:11;;;;;;;2.83;0.93;;;20.70;82.10;;;;;;4911673;29;20047;-67
2021/04/23 02:06:40;;;;;;;4.10;0.80;;;21.00;84.00;;;;;;4912268;29;20071;-67
2021/04/23 02:09:08;;;;;;;4.50;0.88;;;21.10;82.10;;;;;;4907148;29;20040;-67
2021/04/23 02:11:37;;;;;;;4.32;1.05;;;20.60;81.60;;;;;;4915497;29;20035;-67
2021/04/23 02:14:05;;;;;;;4.22;0.93;;;20.40;80.80;;;;;;4918341;29;20064;-66
2021/04/23 02:16:32;;;;;;;4.80;0.68;;;20.60;81.10;;;;;;4922270;29;20090;-66
2021/04/23 02:19:00;;;;;;;8.50;0.88;;;20.70;81.70;;;;;;4913926;29;20454;-67
2021/04/23 02:21:28;;;;;;;3.45;0.75;;;20.70;80.70;;;;;;4917280;29;20040;-69
2021/04/23 02:23:56;;;;;;;4.80;0.88;;;20.80;81.40;;;;;;4914775;29;20070;-67
2021/04/23 02:26:23;;;;;;;2.55;0.65;;;20.70;80.50;;;;;;4914314;29;20147;-67
2021/04/23 02:28:55;;;;;;;4.60;1.40;;;20.80;81.70;;;;;;4909936;29;20070;-67
2021/04/23 02:31:27;;;;;;;3.10;0.75;;;21.20;80.00;;;;;;4909833;29;20068;-67
2021/04/23 02:33:58;;;;;;;3.78;0.70;;;21.80;79.20;;;;;;4912225;29;20032;-67
2021/04/23 02:36:26;;;;;;;4.72;0.60;;;21.50;80.60;;;;;;4918669;29;20024;-67
2021/04/23 02:38:54;;;;;;;2.78;0.38;;;21.30;79.80;;;;;;4912038;29;20040;-67
2021/04/23 02:41:22;;;;;;;1.70;0.40;;;21.20;79.10;;;;;;4914339;29;20557;-66
2021/04/23 02:43:53;;;;;;;3.72;0.90;;;21.20;80.10;;;;;;4900276;29;21901;-67
2021/04/23 02:46:23;;;;;;;6.63;1.10;;;21.10;79.70;;;;;;4915362;29;21997;-67
2021/04/23 02:48:50;;;;;;;3.13;0.95;;;21.40;78.30;;;;;;4908597;29;20064;-66
2021/04/23 02:51:22;;;;;;;11.75;2.47;;;21.50;81.60;;;;;;4919672;29;20060;-67
2021/04/23 02:53:50;;;;;;;3.38;0.63;;;21.80;79.90;;;;;;4896999;29;20040;-67
2021/04/23 02:56:19;;;;;;;5.38;0.80;;;21.80;81.00;;;;;;4907193;29;20659;-67
2021/04/23 02:58:46;;;;;;;2.75;0.65;;;21.70;78.70;;;;;;4917659;29;20107;-67
2021/04/23 03:01:17;;;;;;;5.53;0.65;;;21.30;78.80;;;;;;4918465;29;20382;-67
2021/04/23 03:03:45;;;;;;;4.60;0.60;;;21.40;79.20;;;;;;4906494;29;20052;-67
2021/04/23 03:06:13;;;;;;;2.90;0.57;;;21.50;78.90;;;;;;4916130;29;20043;-67
2021/04/23 03:08:41;;;;;;;1.75;0.40;;;21.60;79.20;;;;;;4903301;29;20059;-67
2021/04/23 03:11:11;;;;;;;7.35;0.90;;;21.60;78.60;;;;;;4914116;29;20036;-67
2021/04/23 03:13:42;;;;;;;3.92;1.00;;;21.60;79.80;;;;;;4897143;29;20036;-67
2021/04/23 03:16:10;;;;;;;9.63;1.15;;;21.70;78.70;;;;;;4911793;29;20032;-66
2021/04/23 03:18:40;;;;;;;11.80;0.85;;;21.80;78.30;;;;;;4912945;29;20139;-67
2021/04/23 03:21:09;;;;;;;4.40;1.20;;;22.00;78.20;;;;;;4919381;29;20454;-68
2021/04/23 03:23:36;;;;;;;4.32;0.70;;;21.20;78.40;;;;;;4895984;29;20036;-67
2021/04/23 03:26:09;;;;;;;5.90;0.80;;;20.90;78.40;;;;;;4917314;29;20044;-67
2021/04/23 03:28:38;;;;;;;2.67;0.60;;;20.90;79.00;;;;;;4895732;29;20040;-67
2021/04/23 03:31:07;;;;;;;2.50;0.50;;;20.90;79.80;;;;;;4904526;29;20040;-66
2021/04/23 03:33:35;;;;;;;3.50;0.90;;;21.30;78.70;;;;;;4911777;29;20040;-68
2021/04/23 03:36:04;;;;;;;3.35;0.98;;;21.30;78.00;;;;;;4906871;29;20047;-68
2021/04/23 03:38:35;;;;;;;3.22;0.95;;;21.30;78.30;;;;;;4911627;29;20455;-67
2021/04/23 03:41:08;;;;;;;1.58;0.40;;;21.20;79.00;;;;;;4937036;29;20028;-68
2021/04/23 03:43:35;;;;;;;3.35;0.88;;;21.30;78.60;;;;;;4909196;29;20422;-67
2021/04/23 03:46:03;;;;;;;2.15;0.40;;;21.10;78.80;;;;;;4919850;29;20048;-67
2021/04/23 03:48:31;;;;;;;7.82;1.70;;;21.40;79.20;;;;;;4917942;29;20416;-67
2021/04/23 03:50:58;;;;;;;5.45;1.35;;;21.40;78.60;;;;;;4916739;29;20175;-68
2021/04/23 03:53:25;;;;;;;2.42;0.47;;;21.50;78.70;;;;;;4903719;29;20048;-68
2021/04/23 03:55:55;;;;;;;3.50;0.60;;;21.70;77.70;;;;;;4919430;29;20047;-68
2021/04/23 03:58:23;;;;;;;5.55;0.65;;;21.60;78.00;;;;;;4908957;29;20032;-68
2021/04/23 04:00:57;;;;;;;3.65;0.57;;;21.60;78.60;;;;;;4902194;29;20052;-68
2021/04/23 04:03:25;;;;;;;2.83;0.77;;;21.60;78.60;;;;;;4913113;29;20044;-68
2021/04/23 04:05:54;;;;;;;3.53;0.95;;;21.60;78.10;;;;;;4912263;29;20371;-68
2021/04/23 04:08:22;;;;;;;4.72;0.80;;;21.40;78.50;;;;;;4904948;29;20072;-68
2021/04/23 04:10:50;;;;;;;3.25;1.20;;;21.60;78.70;;;;;;4912440;29;20174;-68
2021/04/23 04:13:18;;;;;;;3.35;0.38;;;21.30;78.40;;;;;;4911135;29;20036;-68
2021/04/23 04:15:46;;;;;;;2.28;0.50;;;21.30;78.70;;;;;;4902032;29;20044;-68
2021/04/23 04:18:14;;;;;;;4.20;0.55;;;21.30;78.30;;;;;;4909479;29;20093;-68
2021/04/23 04:20:45;;;;;;;3.67;0.73;;;21.30;78.40;;;;;;4918375;29;20039;-68
2021/04/23 04:23:15;;;;;;;5.43;1.05;;;21.30;79.20;;;;;;4906153;29;20047;-68
2021/04/23 04:25:49;;;;;;;4.50;0.60;;;21.30;78.30;;;;;;4916972;29;20059;-68
2021/04/23 04:28:17;;;;;;;3.67;1.02;;;21.50;78.40;;;;;;4892802;29;20063;-67
2021/04/23 04:30:45;;;;;;;5.97;0.90;;;21.80;79.00;;;;;;4908491;29;20043;-67
2021/04/23 04:33:13;;;;;;;4.30;0.93;;;21.30;78.50;;;;;;4914546;29;20036;-67
2021/04/23 04:35:41;;;;;;;5.72;1.73;;;21.50;79.20;;;;;;4918724;29;20036;-68
2021/04/23 04:38:11;;;;;;;6.93;2.38;;;21.30;82.10;;;;;;4907655;29;20041;-68
2021/04/23 04:40:40;;;;;;;9.32;2.40;;;21.10;82.60;;;;;;4913677;29;20040;-68
2021/04/23 04:43:10;;;;;;;6.05;2.05;;;20.80;84.70;;;;;;4895087;29;20029;-68
2021/04/23 04:45:38;;;;;;;9.57;1.98;;;20.60;84.10;;;;;;4896716;29;20056;-68
2021/04/23 04:48:07;;;;;;;4.90;2.05;;;20.60;84.70;;;;;;4911117;29;20036;-68
2021/04/23 04:50:44;;;;;;;5.95;1.92;;;20.40;83.60;;;;;;4912603;29;20061;-68
2021/04/23 04:53:11;;;;;;;4.45;1.85;;;20.30;88.40;;;;;;4915173;29;20124;-68
2021/04/23 04:55:42;;;;;;;8.32;2.60;;;20.50;88.00;;;;;;4916549;29;20028;-67
2021/04/23 04:58:12;;;;;;;5.53;1.67;;;20.40;84.80;;;;;;4913754;29;20037;-68
2021/04/23 05:00:42;;;;;;;6.13;1.73;;;20.40;85.70;;;;;;4917100;29;20059;-68
2021/04/23 05:03:11;;;;;;;5.85;1.88;;;20.40;85.00;;;;;;4905002;29;20044;-68
2021/04/23 05:05:39;;;;;;;4.28;1.90;;;20.40;84.70;;;;;;4915930;29;20170;-68
2021/04/23 05:08:06;;;;;;;3.53;1.70;;;20.40;88.70;;;;;;4913044;29;20047;-68
2021/04/23 05:10:34;;;;;;;5.88;2.20;;;20.30;85.50;;;;;;4917924;29;20132;-68
2021/04/23 05:13:01;;;;;;;5.75;2.00;;;20.10;86.20;;;;;;4914573;29;20044;-68
2021/04/23 05:15:29;;;;;;;5.95;1.98;;;20.10;86.40;;;;;;4916790;29;20036;-68
2021/04/23 05:17:56;;;;;;;6.25;2.45;;;19.90;86.60;;;;;;4904510;29;20413;-68
2021/04/23 05:20:24;;;;;;;6.32;2.10;;;19.90;87.70;;;;;;4912481;29;20400;-68
2021/04/23 05:22:52;;;;;;;5.70;2.53;;;20.00;88.30;;;;;;4908248;29;20036;-68
2021/04/23 05:25:23;;;;;;;9.55;3.15;;;20.00;87.40;;;;;;4916709;29;20024;-68
2021/04/23 05:27:51;;;;;;;5.70;1.52;;;19.90;87.90;;;;;;4905841;29;20045;-68
2021/04/23 05:30:21;;;;;;;5.97;1.60;;;19.80;88.40;;;;;;4916765;29;20048;-68
2021/04/23 05:32:49;;;;;;;7.60;1.80;;;19.60;88.90;;;;;;4913288;29;20044;-68
2021/04/23 05:35:19;;;;;;;7.82;1.90;;;19.50;90.00;;;;;;4917461;29;20044;-68
2021/04/23 05:37:47;;;;;;;5.22;1.40;;;19.50;90.00;;;;;;4913676;29;20043;-68
2021/04/23 05:40:18;;;;;;;6.72;1.77;;;19.50;89.50;;;;;;4910144;29;20061;-68
2021/04/23 05:42:46;;;;;;;5.53;1.48;;;19.40;89.50;;;;;;4913681;29;20098;-68
2021/04/23 05:45:14;;;;;;;9.52;2.00;;;19.30;90.00;;;;;;4916352;29;20382;-68
2021/04/23 05:47:42;;;;;;;8.90;1.40;;;19.30;90.30;;;;;;4912053;29;20123;-68
2021/04/23 05:50:11;;;;;;;6.63;1.85;;;19.20;90.30;;;;;;4897411;29;20036;-68
2021/04/23 05:52:40;;;;;;;8.05;2.78;;;19.20;90.30;;;;;;4910351;29;20059;-68
2021/04/23 05:55:10;;;;;;;6.10;1.50;;;19.20;90.30;;;;;;4913370;29;20036;-68
2021/04/23 05:57:39;;;;;;;5.60;1.50;;;19.20;90.30;;;;;;4910914;29;20127;-68
2021/04/23 06:00:10;;;;;;;7.60;1.70;;;19.20;90.30;;;;;;4912560;29;20048;-68
2021/04/23 06:02:37;;;;;;;4.63;1.65;;;19.20;90.80;;;;;;4910137;29;20532;-68
2021/04/23 06:05:06;;;;;;;5.00;1.30;;;19.20;90.50;;;;;;4913697;29;20040;-69
2021/04/23 06:07:34;;;;;;;7.25;1.38;;;19.10;90.80;;;;;;4907440;29;20132;-68
2021/04/23 06:10:01;;;;;;;4.55;1.50;;;18.90;90.60;;;;;;4909096;29;20052;-68
2021/04/23 06:12:29;;;;;;;3.80;1.13;;;18.90;90.80;;;;;;4894911;29;20075;-68
2021/04/23 06:14:56;;;;;;;2.55;1.23;;;18.80;90.80;;;;;;4897569;29;20040;-69
2021/04/23 06:17:23;;;;;;;4.72;1.00;;;18.70;91.20;;;;;;4894773;29;20132;-69
2021/04/23 06:19:51;;;;;;;7.63;1.45;;;18.60;91.20;;;;;;4907544;29;20426;-68
2021/04/23 06:22:18;;;;;;;5.53;1.45;;;18.60;91.30;;;;;;4911195;29;20040;-68
2021/04/23 06:24:46;;;;;;;5.38;1.40;;;18.60;91.30;;;;;;4902798;29;20127;-68
2021/04/23 06:27:14;;;;;;;5.57;1.20;;;18.60;91.50;;;;;;4910962;29;20084;-68
2021/04/23 06:29:41;;;;;;;6.53;1.52;;;18.50;91.70;;;;;;4913236;29;20307;-68
2021/04/23 06:32:08;;;;;;;3.97;1.60;;;18.50;91.80;;;;;;4909887;29;20434;-68
2021/04/23 06:34:36;;;;;;;6.50;1.75;;;18.50;91.40;;;;;;4913507;29;20040;-68
2021/04/23 06:37:04;;;;;;;6.32;1.55;;;18.40;91.50;;;;;;4913419;29;20512;-67
2021/04/23 06:39:31;;;;;;;3.47;0.98;;;18.40;91.90;;;;;;4912466;29;20375;-67
2021/04/23 06:41:58;;;;;;;2.58;0.80;;;18.30;91.90;;;;;;4909345;29;20028;-68
2021/04/23 06:44:27;;;;;;;6.50;1.33;;;18.20;91.50;;;;;;4912235;29;20036;-68
2021/04/23 06:46:54;;;;;;;5.15;1.50;;;18.20;92.10;;;;;;4912983;29;20044;-68
2021/04/23 06:49:22;;;;;;;5.15;1.20;;;18.10;91.60;;;;;;4892327;29;20397;-68
2021/04/23 06:51:50;;;;;;;4.35;0.93;;;18.10;91.90;;;;;;4904552;29;20039;-68
2021/04/23 06:54:17;;;;;;;5.78;1.15;;;18.00;92.30;;;;;;4902805;29;20048;-68
2021/04/23 06:56:44;;;;;;;8.68;1.15;;;17.90;91.60;;;;;;4924009;29;20035;-68
2021/04/23 06:59:12;;;;;;;2.72;1.15;;;17.90;92.40;;;;;;4911797;29;20040;-68
2021/04/23 07:01:39;;;;;;;3.20;0.65;;;17.80;91.70;;;;;;4914597;29;20131;-69
2021/04/23 07:04:06;;;;;;;2.97;0.70;;;17.70;92.20;;;;;;4911256;29;20035;-68
2021/04/23 07:06:39;;;;;;;2.55;1.13;;;17.80;92.30;;;;;;4912518;29;20039;-68
2021/04/23 07:09:07;;;;;;;3.55;0.60;;;17.70;92.50;;;;;;4907806;29;20370;-68
2021/04/23 07:11:35;;;;;;;3.25;1.10;;;17.70;92.20;;;;;;4913293;29;20074;-67
2021/04/23 07:14:03;;;;;;;4.45;0.85;;;17.60;92.20;;;;;;4908543;29;20032;-68
2021/04/23 07:16:31;;;;;;;7.95;1.10;;;17.70;93.30;;;;;;4910560;29;20084;-68
2021/04/23 07:18:58;;;;;;;4.55;1.35;;;17.70;93.20;;;;;;4909168;29;20035;-68
2021/04/23 07:21:25;;;;;;;5.55;1.17;;;17.60;94.60;;;;;;4898339;29;20127;-68
2021/04/23 07:23:53;;;;;;;5.57;0.75;;;17.60;93.10;;;;;;4908192;29;20497;-68
2021/04/23 07:26:20;;;;;;;4.07;0.95;;;17.60;93.90;;;;;;4910112;29;20145;-68
2021/04/23 07:28:47;;;;;;;4.63;1.88;;;17.50;94.40;;;;;;4908189;29;20100;-68
2021/04/23 07:31:14;;;;;;;5.65;1.00;;;17.50;94.00;;;;;;4890533;29;20032;-68
2021/04/23 07:33:42;;;;;;;4.82;0.85;;;17.40;94.20;;;;;;4908670;29;20122;-68
2021/04/23 07:36:09;;;;;;;4.00;1.02;;;17.40;93.60;;;;;;4913752;29;20036;-68
2021/04/23 07:38:36;;;;;;;5.15;1.00;;;17.40;93.50;;;;;;4910577;29;20075;-68
2021/04/23 07:41:04;;;;;;;3.80;0.90;;;17.40;94.10;;;;;;4912501;29;20131;-68
2021/04/23 07:43:31;;;;;;;5.70;1.13;;;17.30;93.80;;;;;;4911356;29;20422;-68
2021/04/23 07:46:00;;;;;;;2.75;0.90;;;17.30;93.50;;;;;;4912877;29;20115;-68
2021/04/23 07:48:28;;;;;;;3.20;0.70;;;17.20;93.50;;;;;;4908314;29;20032;-68
2021/04/23 07:50:56;;;;;;;11.00;1.38;;;17.20;93.90;;;;;;4915574;29;20040;-68
2021/04/23 07:53:23;;;;;;;4.13;1.05;;;17.20;93.90;;;;;;4911526;29;20132;-68
2021/04/23 07:55:51;;;;;;;5.32;1.35;;;17.20;94.10;;;;;;4914152;29;20119;-69
2021/04/23 07:58:18;;;;;;;4.97;1.30;;;17.30;93.60;;;;;;4911051;29;20040;-69
2021/04/23 08:00:46;;;;;;;5.97;0.80;;;17.20;93.90;;;;;;4915051;29;20048;-69
2021/04/23 08:03:14;;;;;;;3.60;0.93;;;17.20;94.70;;;;;;4903156;29;20509;-69
2021/04/23 08:05:41;;;;;;;5.47;1.50;;;17.20;94.60;;;;;;4908205;29;20042;-69
2021/04/23 08:08:10;;;;;;;5.57;0.80;;;17.10;94.10;;;;;;4911138;29;20450;-69
2021/04/23 08:10:38;;;;;;;4.68;0.90;;;17.20;94.00;;;;;;4909705;29;20112;-68
2021/04/23 08:13:06;;;;;;;5.93;1.20;;;17.10;94.40;;;;;;4907797;29;20131;-68
2021/04/23 08:15:36;;;;;;;2.78;0.82;;;17.20;94.50;;;;;;4913466;29;20171;-68
2021/04/23 08:18:03;;;;;;;5.93;1.40;;;17.10;94.20;;;;;;4909327;29;20071;-68
2021/04/23 08:20:31;;;;;;;3.55;1.80;;;17.10;94.50;;;;;;4918898;29;20043;-68
2021/04/23 08:22:58;;;;;;;8.30;3.03;;;17.10;94.40;;;;;;4914439;29;20175;-68
2021/04/23 08:25:27;;;;;;;4.00;1.83;;;17.10;94.40;;;;;;4896067;29;20037;-68
2021/04/23 08:27:54;;;;;;;4.20;1.27;;;17.30;94.90;;;;;;4895977;29;20048;-68
2021/04/23 08:30:25;;;;;;;2.53;0.88;;;17.20;94.20;;;;;;4903194;29;20104;-68
2021/04/23 08:32:54;;;;;;;8.60;2.15;;;17.20;94.80;;;;;;4901665;29;20036;-68
2021/04/23 08:35:22;;;;;;;3.60;1.10;;;17.20;94.70;;;;;;4917205;29;20063;-68
2021/04/23 08:37:49;;;;;;;3.00;1.10;;;17.20;94.50;;;;;;4907239;29;20029;-68
2021/04/23 08:40:19;;;;;;;4.85;1.15;;;17.20;94.60;;;;;;4914357;29;20112;-68
2021/04/23 08:42:47;;;;;;;6.68;1.95;;;17.20;94.80;;;;;;4899009;29;20049;-68
2021/04/23 08:45:18;;;;;;;3.72;1.38;;;17.10;95.00;;;;;;4899042;29;20047;-68
2021/04/23 08:47:46;;;;;;;5.32;2.05;;;17.10;94.70;;;;;;4915675;29;20040;-68
2021/04/23 08:50:15;;;;;;;6.45;2.13;;;17.10;94.90;;;;;;4919177;29;20079;-68
2021/04/23 08:52:46;;;;;;;7.07;1.73;;;17.00;95.40;;;;;;4910836;29;20040;-68
2021/04/23 08:55:16;;;;;;;5.07;2.20;;;16.90;96.50;;;;;;4913071;29;20043;-68
2021/04/23 08:57:47;;;;;;;5.38;1.63;;;16.90;96.60;;;;;;4917149;29;20051;-67
2021/04/23 09:00:16;;;;;;;6.53;2.40;;;16.80;96.20;;;;;;4900565;29;20040;-68
2021/04/23 09:02:44;;;;;;;8.85;2.00;;;16.80;96.30;;;;;;4898072;29;20040;-68
2021/04/23 09:05:15;;;;;;;4.57;1.60;;;16.70;97.30;;;;;;4899304;29;20048;-69
2021/04/23 09:07:57;;;;;;;10.15;1.80;;;16.70;96.60;;;;;;4896509;29;20048;-69
2021/04/23 09:10:24;;;;;;;6.43;1.80;;;16.60;96.80;;;;;;4910765;29;20033;-68
2021/04/23 09:13:24;;;;;;;5.63;1.55;;;16.60;97.10;;;;;;4908186;29;20395;-69
2021/04/23 09:15:56;;;;;;;5.97;1.80;;;16.50;97.50;;;;;;4868084;29;20047;-69
2021/04/23 09:18:25;;;;;;;9.00;1.70;;;16.50;97.70;;;;;;4902796;29;20116;-68
2021/04/23 09:21:04;;;;;;;3.92;1.23;;;16.50;98.10;;;;;;4894773;29;20043;-68
2021/04/23 09:23:31;;;;;;;4.97;1.42;;;16.60;98.20;;;;;;4895637;29;20041;-68
2021/04/23 09:26:00;;;;;;;5.28;1.45;;;16.50;98.20;;;;;;4916946;29;20037;-69
2021/04/23 09:28:42;;;;;;;4.75;1.35;;;16.40;98.90;;;;;;4909020;29;20059;-68
2021/04/23 09:31:31;;;;;;;3.58;1.35;;;16.30;99.40;;;;;;4917808;29;20044;-68
2021/04/23 09:34:04;;;;;;;5.28;2.00;;;16.30;99.90;;;;;;4904393;29;20123;-68
2021/04/23 09:36:45;;;;;;;7.43;1.90;;;16.40;99.90;;;;;;4900493;29;20056;-69
2021/04/23 09:39:24;;;;;;;5.90;1.38;;;16.40;99.90;;;;;;4911033;29;20041;-68
2021/04/23 09:42:04;;;;;;;7.53;2.10;;;16.30;99.90;;;;;;4899279;29;20457;-69
2021/04/23 09:44:37;;;;;;;9.10;2.33;;;16.20;99.90;;;;;;4905637;29;20481;-69
2021/04/23 09:47:07;;;;;;;4.57;2.00;;;16.10;99.90;;;;;;4896922;29;20048;-69
2021/04/23 09:49:35;;;;;;;7.45;2.10;;;16.00;99.90;;;;;;4899008;29;20036;-69
2021/04/23 09:52:05;;;;;;;5.78;2.28;;;16.00;99.90;;;;;;4914022;29;20040;-69
2021/04/23 09:54:34;;;;;;;11.65;2.33;;;15.90;99.90;;;;;;4889958;29;20036;-69
2021/04/23 09:57:02;;;;;;;8.73;2.78;;;15.90;99.90;;;;;;4898371;29;20505;-69
2021/04/23 09:59:31;;;;;;;9.13;2.70;;;16.00;99.90;;;;;;4898108;29;20056;-68
2021/04/23 10:02:03;;;;;;;6.85;2.55;;;16.10;99.90;;;;;;4880880;29;20096;-69
2021/04/23 10:04:33;;;;;;;7.90;2.65;;;16.00;99.90;;;;;;4916477;29;20036;-69
2021/04/23 10:07:08;;;;;;;5.95;1.95;;;16.10;99.90;;;;;;4914665;29;20143;-69
2021/04/23 10:09:49;;;;;;;8.75;2.25;;;16.10;99.90;;;;;;4915757;29;20508;-69
2021/04/23 10:12:54;;;;;;;10.13;3.13;;;16.30;99.90;;;;;;4904162;29;20039;-69
2021/04/23 10:15:28;;;;;;;8.97;2.57;;;16.30;99.90;;;;;;4902335;29;20478;-69
2021/04/23 10:18:00;;;;;;;7.28;2.45;;;16.30;99.90;;;;;;4896242;29;20286;-69
2021/04/23 10:20:31;;;;;;;10.88;4.20;;;16.30;99.90;;;;;;4916705;29;20038;-68
2021/04/23 10:23:00;;;;;;;17.05;11.57;;;16.30;99.90;;;;;;4912759;29;20501;-69
2021/04/23 10:25:29;;;;;;;27.63;18.02;;;16.20;99.90;;;;;;4916708;29;20039;-69
2021/04/23 10:27:58;;;;;;;8.52;5.43;;;16.20;99.90;;;;;;4903904;29;20565;-69
2021/04/23 10:30:30;;;;;;;11.30;4.32;;;16.10;99.90;;;;;;4891913;29;20063;-69
2021/04/23 10:33:02;;;;;;;8.35;3.65;;;16.10;99.90;;;;;;4895794;29;20390;-68
2021/04/23 10:35:31;;;;;;;7.55;3.22;;;16.10;99.90;;;;;;4901373;29;20043;-69
2021/04/23 10:38:07;;;;;;;9.43;4.15;;;16.10;99.90;;;;;;4894614;29;20047;-69
2021/04/23 10:40:36;;;;;;;15.50;8.98;;;16.00;99.90;;;;;;4900522;29;20068;-69
2021/04/23 10:43:16;;;;;;;14.25;5.25;;;16.00;99.90;;;;;;4901030;29;20032;-69
2021/04/23 10:45:51;;;;;;;11.48;4.18;;;16.00;99.90;;;;;;4900197;29;20044;-69
2021/04/23 10:48:18;;;;;;;7.72;4.15;;;16.00;99.90;;;;;;4918072;29;20044;-69
2021/04/23 10:50:46;;;;;;;14.57;5.03;;;15.90;99.90;;;;;;4899866;29;20048;-69
2021/04/23 10:53:27;;;;;;;10.70;4.80;;;15.80;99.90;;;;;;4917529;29;20474;-69
2021/04/23 10:56:07;;;;;;;8.95;3.20;;;15.90;99.90;;;;;;4900139;29;20068;-69
2021/04/23 10:58:39;;;;;;;8.27;3.33;;;15.90;99.90;;;;;;4917613;29;20408;-69
2021/04/23 11:01:15;;;;;;;13.90;6.10;;;15.80;99.90;;;;;;4900066;29;20067;-69
2021/04/23 11:03:45;;;;;;;7.45;3.67;;;15.80;99.90;;;;;;4918032;29;20036;-69
2021/04/23 11:06:15;;;;;;;9.65;5.03;;;15.80;99.90;;;;;;4897922;29;20406;-70
2021/04/23 11:09:16;;;;;;;9.40;3.83;;;15.80;99.90;;;;;;4894867;29;20045;-69
2021/04/23 11:12:04;;;;;;;9.90;4.97;;;15.80;99.90;;;;;;4876245;29;20036;-69
2021/04/23 11:14:33;;;;;;;6.32;3.90;;;15.80;99.90;;;;;;4897653;29;20144;-69
2021/04/23 11:17:18;;;;;;;10.82;4.05;;;15.80;99.90;;;;;;4916721;29;20386;-69
2021/04/23 11:19:50;;;;;;;8.32;4.13;;;15.80;99.90;;;;;;4899208;29;20523;-69
2021/04/23 11:22:19;;;;;;;10.90;4.55;;;15.70;99.90;;;;;;4913213;29;20111;-69
2021/04/23 11:25:13;;;;;;;8.10;3.65;;;15.70;99.90;;;;;;4915999;29;20028;-69
2021/04/23 11:28:02;;;;;;;11.23;4.85;;;15.70;99.90;;;;;;4912858;29;20083;-69
2021/04/23 11:30:50;;;;;;;14.25;4.82;;;15.70;99.90;;;;;;4898685;29;20052;-69
2021/04/23 11:33:51;;;;;;;8.32;3.97;;;15.60;99.90;;;;;;4898936;29;20305;-69
2021/04/23 11:36:28;;;;;;;12.32;3.97;;;15.60;99.90;;;;;;4907677;29;20505;-69
2021/04/23 11:39:08;;;;;;;14.35;5.03;;;15.40;99.90;;;;;;4913238;29;20102;-69
2021/04/23 11:41:36;;;;;;;10.70;5.07;;;15.40;99.90;;;;;;4899513;29;20062;-69
2021/04/23 11:44:23;;;;;;;14.07;5.85;;;15.40;99.90;;;;;;4916007;29;20064;-69
2021/04/23 11:46:56;;;;;;;11.65;6.22;;;15.40;99.90;;;;;;4916119;29;20405;-69
2021/04/23 11:49:23;;;;;;;12.65;7.07;;;15.20;99.90;;;;;;4899434;29;20494;-69
2021/04/23 11:51:53;;;;;;;13.32;6.70;;;15.20;99.90;;;;;;4918088;29;20564;-69
2021/04/23 11:54:32;;;;;;;14.52;6.80;;;15.20;99.90;;;;;;4920434;29;20118;-69
2021/04/23 11:57:02;;;;;;;17.33;9.05;;;15.20;99.90;;;;;;4902417;29;20071;-69
2021/04/23 11:59:30;;;;;;;15.60;7.25;;;15.30;99.90;;;;;;4916858;29;20378;-69
2021/04/23 12:01:57;;;;;;;19.20;8.35;;;15.30;99.90;;;;;;4914121;29;20040;-69
2021/04/23 12:04:45;;;;;;;14.10;7.18;;;15.10;99.90;;;;;;4893779;29;20047;-69
2021/04/23 12:07:14;;;;;;;13.07;5.68;;;15.00;99.90;;;;;;4902358;29;20036;-69
2021/04/23 12:09:42;;;;;;;13.75;7.35;;;15.00;99.90;;;;;;4901797;29;20464;-69
2021/04/23 12:12:14;;;;;;;14.40;6.82;;;15.00;99.90;;;;;;4901475;29;20043;-68
2021/04/23 12:14:48;;;;;;;13.30;6.78;;;15.00;99.90;;;;;;4916913;29;20081;-69
2021/04/23 12:17:16;;;;;;;15.25;7.32;;;14.90;99.90;;;;;;4903590;29;20091;-69
2021/04/23 12:19:44;;;;;;;13.02;6.85;;;14.80;99.90;;;;;;4918674;29;20040;-69
2021/04/23 12:22:12;;;;;;;14.07;6.13;;;14.80;99.90;;;;;;4902453;29;20040;-68
2021/04/23 12:24:39;;;;;;;17.80;6.97;;;14.80;99.90;;;;;;4901873;29;20039;-68
2021/04/23 12:27:06;;;;;;;10.32;4.88;;;14.90;99.90;;;;;;4918889;29;20088;-68
2021/04/23 12:29:34;;;;;;;11.65;5.10;;;14.90;99.90;;;;;;4919716;29;20442;-69
2021/04/23 12:32:01;;;;;;;9.15;4.55;;;14.90;99.90;;;;;;4902552;29;20047;-68
2021/04/23 12:34:28;;;;;;;11.15;4.40;;;15.00;99.90;;;;;;4915504;29;20044;-69
2021/04/23 12:36:56;;;;;;;11.73;4.68;;;15.00;99.90;;;;;;4912807;29;20062;-69
2021/04/23 12:39:27;;;;;;;10.07;5.03;;;15.00;99.90;;;;;;4915999;29;20040;-69
2021/04/23 12:41:56;;;;;;;12.63;6.57;;;15.10;99.90;;;;;;4913847;29;20135;-68
2021/04/23 12:44:26;;;;;;;15.85;8.10;;;15.00;99.90;;;;;;4918506;29;20108;-68
2021/04/23 12:46:57;;;;;;;9.63;4.75;;;15.00;99.90;;;;;;4915955;29;20401;-68
2021/04/23 12:49:27;;;;;;;10.68;4.57;;;15.00;99.90;;;;;;4901043;29;20040;-68
2021/04/23 12:52:02;;;;;;;12.05;5.50;;;14.90;99.90;;;;;;4910690;29;20059;-68
2021/04/23 12:54:39;;;;;;;23.92;13.65;;;14.80;99.90;;;;;;4891947;29;20048;-68
2021/04/23 12:57:10;;;;;;;16.33;6.20;;;14.90;99.90;;;;;;4907479;29;20047;-68
2021/04/23 12:59:45;;;;;;;12.25;5.40;;;14.90;99.90;;;;;;4912009;29;20115;-68
2021/04/23 13:07:16;;;;;;;16.02;6.72;;;14.50;99.90;;;;;;4910506;29;20052;-68
2021/04/23 13:09:46;;;;;;;10.25;5.10;;;14.40;99.90;;;;;;4905728;29;20067;-68
2021/04/23 13:12:25;;;;;;;23.02;11.57;;;14.50;99.90;;;;;;4911225;29;20459;-68
2021/04/23 13:14:56;;;;;;;33.47;21.58;;;14.60;99.90;;;;;;4908282;29;20036;-69
2021/04/23 13:17:25;;;;;;;32.80;18.33;;;14.30;99.90;;;;;;4898131;29;20374;-68
2021/04/23 13:19:54;;;;;;;28.60;19.67;;;14.30;99.90;;;;;;4918176;29;20494;-68
2021/04/23 13:22:33;;;;;;;33.17;21.17;;;14.40;99.90;;;;;;4916636;29;20516;-68
2021/04/23 13:25:14;;;;;;;25.13;14.57;;;14.40;99.90;;;;;;4917713;29;20486;-68
2021/04/23 13:27:48;;;;;;;11.40;6.55;;;14.30;99.90;;;;;;4914942;29;20098;-68
2021/04/23 13:30:31;;;;;;;39.85;30.00;;;14.40;99.90;;;;;;4900663;29;20383;-68